< < Back
Terminal Aerodrome Forecast


Current Version              Previous Versions:   1  2  3  4  5  6  7  8  9  

Terminal Aerodrome Forecast

283
FTUS42 KJAX 301720
TAFGNV
TAF
KGNV 301720Z 3018/0118 24006KT P6SM VCTS BKN035CB
      TEMPO 3018/3022 2SM TSRA OVC020CB
     FM010100 21005KT P6SM VCSH BKN050 BKN120
     FM010400 VRB03KT P6SM SCT120 BKN250
     FM011300 23007KT P6SM VCSH BKN030=

Latest METAR

006
SAUS70 KWBC 010800 RRJ
MTRGNV
METAR KGNV 010753Z AUTO 18003KT 10SM CLR 23/22 A3000 RMK AO2 SLP156
T02280217


USA.gov is the U.S. government's official web portal to all federal, state and local government web resources and services.